Time;durP1;ratioP1;P1;durP2;ratioP2;P2;SDS_P1;SDS_P2;PMS_P1;PMS_P2;Temp;Humidity;BMP_temperature;BMP_pressure;BME280_temperature;BME280_humidity;BME280_pressure;Samples;Min_cycle;Max_cycle;Signal;HPM_P1;HPM_P2
2022/07/25 00:00:08;;;;;;;9.80;5.53;;;19.50;99.90;;;;;;5114621;28;20426;-76
2022/07/25 00:02:34;;;;;;;11.07;5.97;;;19.40;99.90;;;;;;5112297;28;20429;-75
2022/07/25 00:04:59;;;;;;;10.63;5.73;;;19.40;99.90;;;;;;5114412;28;20440;-75
2022/07/25 00:07:26;;;;;;;10.50;5.50;;;19.40;99.90;;;;;;5113179;28;20220;-75
2022/07/25 00:09:52;;;;;;;11.03;5.43;;;19.30;99.90;;;;;;5114402;28;20470;-75
2022/07/25 00:12:19;;;;;;;12.70;5.53;;;19.30;99.90;;;;;;5113978;28;20312;-75
2022/07/25 00:14:45;;;;;;;12.00;5.30;;;19.30;99.90;;;;;;5114485;28;20649;-75
2022/07/25 00:17:10;;;;;;;10.30;5.93;;;19.30;99.90;;;;;;5112839;28;20429;-75
2022/07/25 00:19:36;;;;;;;14.30;6.60;;;19.30;99.90;;;;;;5109689;28;20224;-75
2022/07/25 00:22:02;;;;;;;15.40;5.70;;;19.20;99.90;;;;;;5114309;28;20535;-75
2022/07/25 00:24:28;;;;;;;8.00;5.00;;;19.20;99.90;;;;;;5106845;28;20459;-76
2022/07/25 00:26:53;;;;;;;9.43;5.10;;;19.20;99.90;;;;;;5114250;28;20632;-75
2022/07/25 00:29:19;;;;;;;11.13;5.80;;;19.10;99.90;;;;;;5107562;28;20191;-75
2022/07/25 00:31:45;;;;;;;10.80;5.50;;;19.20;99.90;;;;;;5114598;28;20271;-75
2022/07/25 00:34:10;;;;;;;8.23;5.33;;;19.20;99.90;;;;;;5104027;28;20180;-74
2022/07/25 00:36:36;;;;;;;9.00;4.80;;;19.20;99.90;;;;;;5114326;28;20188;-76
2022/07/25 00:39:02;;;;;;;11.27;6.30;;;19.20;99.90;;;;;;5115271;28;20190;-76
2022/07/25 00:41:28;;;;;;;8.77;5.17;;;19.20;99.90;;;;;;5116012;28;20531;-75
2022/07/25 00:43:53;;;;;;;11.77;5.97;;;19.20;99.90;;;;;;5115261;28;20482;-75
2022/07/25 00:46:19;;;;;;;8.77;5.30;;;19.10;99.90;;;;;;5116017;28;20559;-76
2022/07/25 00:48:45;;;;;;;12.00;6.40;;;19.10;99.90;;;;;;5118056;28;20668;-75
2022/07/25 00:51:11;;;;;;;11.43;5.77;;;19.00;99.90;;;;;;5117607;28;20182;-75
2022/07/25 00:53:38;;;;;;;15.03;5.67;;;19.00;99.90;;;;;;5116256;28;20425;-75
2022/07/25 00:56:04;;;;;;;9.70;5.23;;;18.90;99.90;;;;;;5116558;28;20187;-75
2022/07/25 00:58:30;;;;;;;8.40;5.67;;;18.90;99.90;;;;;;5117627;28;20500;-75
2022/07/25 01:00:56;;;;;;;10.07;5.43;;;18.90;99.90;;;;;;5104870;28;20472;-75
2022/07/25 01:03:22;;;;;;;9.57;5.77;;;18.80;99.90;;;;;;5116630;28;20176;-76
2022/07/25 01:05:49;;;;;;;14.10;7.20;;;18.80;99.90;;;;;;5116297;28;20472;-75
2022/07/25 01:08:17;;;;;;;13.37;6.20;;;18.70;99.90;;;;;;5114162;28;20221;-75
2022/07/25 01:10:43;;;;;;;16.47;6.00;;;18.70;99.90;;;;;;5115323;28;20402;-76
2022/07/25 01:13:09;;;;;;;11.33;5.70;;;18.70;99.90;;;;;;5115042;28;20413;-76
2022/07/25 01:15:34;;;;;;;10.93;6.30;;;18.70;99.90;;;;;;5115081;28;20462;-76
2022/07/25 01:18:00;;;;;;;9.40;5.70;;;18.60;99.90;;;;;;5096970;28;20192;-75
2022/07/25 01:20:28;;;;;;;8.47;5.00;;;18.60;99.90;;;;;;5115319;28;20187;-75
2022/07/25 01:22:55;;;;;;;12.13;5.90;;;18.60;99.90;;;;;;5115051;28;20213;-75
2022/07/25 01:25:22;;;;;;;13.73;6.77;;;18.70;99.90;;;;;;5114047;28;20870;-74
2022/07/25 01:27:49;;;;;;;12.23;6.53;;;18.60;99.90;;;;;;5101217;28;20411;-75
2022/07/25 01:30:15;;;;;;;9.27;6.03;;;18.60;99.90;;;;;;5098789;28;20935;-74
2022/07/25 01:32:44;;;;;;;13.43;5.33;;;18.50;99.90;;;;;;5108163;28;20406;-75
2022/07/25 01:35:11;;;;;;;10.90;6.30;;;18.50;99.90;;;;;;5115229;28;20515;-74
2022/07/25 01:37:37;;;;;;;9.97;6.13;;;18.50;99.90;;;;;;5118246;28;20460;-75
2022/07/25 01:40:03;;;;;;;11.43;5.60;;;18.40;99.90;;;;;;5115166;28;20429;-75
2022/07/25 01:42:29;;;;;;;11.37;6.97;;;18.40;99.90;;;;;;5115410;28;20176;-75
2022/07/25 01:44:55;;;;;;;12.57;6.87;;;18.40;99.90;;;;;;5109551;28;20471;-75
2022/07/25 01:47:20;;;;;;;12.00;5.80;;;18.40;99.90;;;;;;5114958;28;20262;-75
2022/07/25 01:49:46;;;;;;;8.80;5.00;;;18.40;99.90;;;;;;5112589;28;20539;-75
2022/07/25 01:52:13;;;;;;;10.50;5.70;;;18.50;99.90;;;;;;5113380;28;20791;-75
2022/07/25 01:54:39;;;;;;;14.33;6.33;;;18.50;99.90;;;;;;5112985;28;20179;-75
2022/07/25 01:57:05;;;;;;;11.33;5.73;;;18.50;99.90;;;;;;5113290;28;21234;-75
2022/07/25 01:59:30;;;;;;;13.20;5.47;;;18.50;99.90;;;;;;5110836;28;20428;-75
2022/07/25 02:01:56;;;;;;;17.10;6.73;;;18.50;99.90;;;;;;5112240;28;20434;-75
2022/07/25 02:04:22;;;;;;;12.83;5.50;;;18.50;99.90;;;;;;5113175;28;20183;-75
2022/07/25 02:06:48;;;;;;;13.80;6.63;;;18.40;99.90;;;;;;5113048;28;20318;-75
2022/07/25 02:09:14;;;;;;;13.10;6.00;;;18.40;99.90;;;;;;5112692;28;20207;-75
2022/07/25 02:11:40;;;;;;;11.00;6.33;;;18.30;99.90;;;;;;5112125;28;20280;-75
2022/07/25 02:14:05;;;;;;;9.90;5.30;;;18.30;99.90;;;;;;5113091;28;20607;-75
2022/07/25 02:16:31;;;;;;;9.70;6.20;;;18.30;99.90;;;;;;5112437;28;20179;-75
2022/07/25 02:18:57;;;;;;;12.03;5.53;;;18.30;99.90;;;;;;5112909;28;20180;-75
2022/07/25 02:21:23;;;;;;;11.10;6.00;;;18.30;99.90;;;;;;5105732;28;20192;-75
2022/07/25 02:23:48;;;;;;;10.67;5.50;;;18.30;99.90;;;;;;5104297;28;20187;-75
2022/07/25 02:26:14;;;;;;;10.37;4.87;;;18.20;99.90;;;;;;5112649;28;20207;-75
2022/07/25 02:28:40;;;;;;;10.97;6.10;;;18.20;99.90;;;;;;5112664;28;20182;-75
2022/07/25 02:31:07;;;;;;;12.20;6.20;;;18.10;99.90;;;;;;5110022;28;20196;-74
2022/07/25 02:33:32;;;;;;;14.90;6.90;;;18.10;99.90;;;;;;5112515;28;20802;-75
2022/07/25 02:35:58;;;;;;;9.37;5.40;;;18.00;99.90;;;;;;5112507;28;20417;-75
2022/07/25 02:38:24;;;;;;;32.63;6.27;;;18.00;99.90;;;;;;5112566;28;20718;-74
2022/07/25 02:40:51;;;;;;;10.30;5.80;;;18.00;99.90;;;;;;5111859;28;20231;-75
2022/07/25 02:43:18;;;;;;;8.70;4.90;;;18.00;99.90;;;;;;5105134;28;20224;-75
2022/07/25 02:45:44;;;;;;;9.80;5.80;;;18.00;99.90;;;;;;5111906;28;20853;-75
2022/07/25 02:48:10;;;;;;;8.70;5.47;;;18.00;99.90;;;;;;5112507;28;20413;-75
2022/07/25 02:50:36;;;;;;;9.83;5.53;;;17.90;99.90;;;;;;5112159;28;20427;-75
2022/07/25 02:53:03;;;;;;;10.73;5.83;;;17.90;99.90;;;;;;5112174;28;20775;-75
2022/07/25 02:55:29;;;;;;;9.97;5.63;;;17.90;99.90;;;;;;5101639;28;20173;-75
2022/07/25 02:57:55;;;;;;;9.67;5.70;;;17.90;99.90;;;;;;5108020;28;20419;-74
2022/07/25 03:00:20;;;;;;;12.33;6.80;;;17.80;99.90;;;;;;5110798;28;20903;-75
2022/07/25 03:02:46;;;;;;;11.23;5.90;;;17.80;99.90;;;;;;5112337;28;20215;-75
2022/07/25 03:05:14;;;;;;;14.23;6.23;;;17.80;99.90;;;;;;5111919;28;20186;-75
2022/07/25 03:07:41;;;;;;;10.73;6.80;;;17.80;99.90;;;;;;5112029;28;20665;-75
2022/07/25 03:10:08;;;;;;;11.43;6.80;;;17.80;99.90;;;;;;5111708;28;20781;-75
2022/07/25 03:12:34;;;;;;;14.00;7.13;;;17.80;99.90;;;;;;5103786;28;20417;-75
2022/07/25 03:15:00;;;;;;;14.83;7.00;;;17.80;99.90;;;;;;5111903;28;20421;-75
2022/07/25 03:17:27;;;;;;;11.07;6.43;;;17.70;99.90;;;;;;5111861;28;20418;-75
2022/07/25 03:19:53;;;;;;;10.13;6.23;;;17.70;99.90;;;;;;5111885;28;20433;-75
2022/07/25 03:22:20;;;;;;;11.40;7.30;;;17.70;99.90;;;;;;5112095;28;20454;-75
2022/07/25 03:24:46;;;;;;;10.13;5.60;;;17.70;99.90;;;;;;5115139;28;20490;-75
2022/07/25 03:27:12;;;;;;;12.43;7.17;;;17.60;99.90;;;;;;5105647;28;20527;-75
2022/07/25 03:29:38;;;;;;;16.10;6.97;;;17.70;99.90;;;;;;5112602;28;20183;-75
2022/07/25 03:32:04;;;;;;;11.13;5.63;;;17.60;99.90;;;;;;5115470;28;20183;-74
2022/07/25 03:34:30;;;;;;;9.83;6.27;;;17.60;99.90;;;;;;5115782;28;20183;-75
2022/07/25 03:36:55;;;;;;;11.80;6.73;;;17.60;99.90;;;;;;5115596;28;20772;-75
2022/07/25 03:39:21;;;;;;;11.67;6.93;;;17.50;99.90;;;;;;5115667;28;20172;-75
2022/07/25 03:41:47;;;;;;;11.00;6.30;;;17.50;99.90;;;;;;5111280;28;20602;-75
2022/07/25 03:44:12;;;;;;;10.30;6.47;;;17.50;99.90;;;;;;5115783;28;20519;-75
2022/07/25 03:46:38;;;;;;;14.67;7.00;;;17.50;99.90;;;;;;5115284;28;20575;-75
2022/07/25 03:49:04;;;;;;;16.10;5.80;;;17.50;99.90;;;;;;5115703;28;20247;-75
2022/07/25 03:51:29;;;;;;;13.33;6.97;;;17.50;99.90;;;;;;5115140;28;20192;-75
2022/07/25 03:54:01;;;;;;;16.10;7.20;;;17.50;99.90;;;;;;5103021;28;20224;-75
2022/07/25 03:56:28;;;;;;;12.70;6.60;;;17.50;99.90;;;;;;5111234;28;20216;-75
2022/07/25 03:58:53;;;;;;;11.37;6.17;;;17.40;99.90;;;;;;5114715;28;20417;-75
2022/07/25 04:01:19;;;;;;;9.57;5.93;;;17.40;99.90;;;;;;5104786;28;20421;-75
2022/07/25 04:03:45;;;;;;;15.43;6.83;;;17.40;99.90;;;;;;5105347;28;20669;-75
2022/07/25 04:06:11;;;;;;;9.70;5.43;;;17.40;99.90;;;;;;5114806;28;20195;-75
2022/07/25 04:08:36;;;;;;;10.03;6.07;;;17.30;99.90;;;;;;5115538;28;20180;-75
2022/07/25 04:11:02;;;;;;;17.83;6.47;;;17.30;99.90;;;;;;5114206;28;20618;-75
2022/07/25 04:13:28;;;;;;;11.63;6.33;;;17.30;99.90;;;;;;5115395;28;20180;-75
2022/07/25 04:15:54;;;;;;;13.77;7.17;;;17.30;99.90;;;;;;5115163;28;20184;-74
2022/07/25 04:18:20;;;;;;;9.70;6.13;;;17.30;99.90;;;;;;5115033;28;20413;-74
2022/07/25 04:20:45;;;;;;;10.83;6.10;;;17.40;99.90;;;;;;5114688;28;20262;-75
2022/07/25 04:23:11;;;;;;;8.90;4.90;;;17.40;99.90;;;;;;5099460;28;20542;-75
2022/07/25 04:25:37;;;;;;;12.50;6.00;;;17.40;99.90;;;;;;5114600;28;20184;-74
2022/07/25 04:28:02;;;;;;;11.57;6.03;;;17.40;99.90;;;;;;5114857;28;20267;-75
2022/07/25 04:30:28;;;;;;;10.13;6.57;;;17.50;99.90;;;;;;5114158;28;20707;-74
2022/07/25 04:32:54;;;;;;;10.03;5.73;;;17.50;99.90;;;;;;5114814;28;20191;-75
2022/07/25 04:35:20;;;;;;;9.47;6.40;;;17.50;99.90;;;;;;5107670;28;20192;-75
2022/07/25 04:37:45;;;;;;;11.37;6.53;;;17.50;99.90;;;;;;5108095;28;20664;-74
2022/07/25 04:40:11;;;;;;;11.33;5.77;;;17.50;99.90;;;;;;5113507;28;20429;-74
2022/07/25 04:42:37;;;;;;;14.90;6.27;;;17.60;99.90;;;;;;5114565;28;20187;-75
2022/07/25 04:45:03;;;;;;;14.17;6.90;;;17.60;99.90;;;;;;5114769;28;20421;-75
2022/07/25 04:47:29;;;;;;;11.47;5.73;;;17.70;99.90;;;;;;5114202;28;20207;-75
2022/07/25 04:49:54;;;;;;;18.07;6.90;;;17.80;99.90;;;;;;5114139;28;20868;-75
2022/07/25 04:52:20;;;;;;;15.20;6.40;;;17.80;99.90;;;;;;5114086;28;20172;-75
2022/07/25 04:54:46;;;;;;;12.00;6.00;;;17.90;99.90;;;;;;5111441;28;20184;-75
2022/07/25 04:57:11;;;;;;;11.17;7.10;;;18.00;99.90;;;;;;5113869;28;20692;-75
2022/07/25 04:59:37;;;;;;;12.40;6.53;;;18.00;99.90;;;;;;5113455;28;20275;-75
2022/07/25 05:02:03;;;;;;;17.63;7.40;;;18.10;99.90;;;;;;5107199;28;20195;-75
2022/07/25 05:04:29;;;;;;;12.13;6.83;;;18.10;99.90;;;;;;5108303;28;20274;-75
2022/07/25 05:06:54;;;;;;;13.40;7.03;;;18.20;99.90;;;;;;5113544;28;20215;-75
2022/07/25 05:09:20;;;;;;;11.00;7.40;;;18.20;99.90;;;;;;5111787;28;20611;-75
2022/07/25 05:11:45;;;;;;;12.27;6.30;;;18.30;99.90;;;;;;5113217;28;20179;-75
2022/07/25 05:14:11;;;;;;;12.53;7.70;;;18.40;99.90;;;;;;5103261;28;20178;-74
2022/07/25 05:16:37;;;;;;;12.40;6.97;;;18.40;99.90;;;;;;5113366;28;20262;-75
2022/07/25 05:19:02;;;;;;;9.03;6.20;;;18.60;99.90;;;;;;5103064;28;20211;-74
2022/07/25 05:21:28;;;;;;;12.33;6.10;;;18.70;99.90;;;;;;5113805;28;20180;-75
2022/07/25 05:23:54;;;;;;;10.37;6.47;;;18.90;99.90;;;;;;5110834;28;20232;-75
2022/07/25 05:26:19;;;;;;;12.87;6.13;;;19.00;99.90;;;;;;5111972;28;20231;-75
2022/07/25 05:28:45;;;;;;;19.73;7.10;;;19.20;99.90;;;;;;5112852;28;20736;-76
2022/07/25 05:31:11;;;;;;;13.40;6.30;;;19.40;99.90;;;;;;5111782;28;20191;-75
2022/07/25 05:33:36;;;;;;;11.10;6.40;;;19.50;99.90;;;;;;5106972;28;20213;-75
2022/07/25 05:36:03;;;;;;;11.70;6.23;;;19.60;99.90;;;;;;5106773;28;20215;-75
2022/07/25 05:38:29;;;;;;;11.80;6.47;;;19.60;99.90;;;;;;5109466;28;20644;-75
2022/07/25 05:40:55;;;;;;;9.03;5.10;;;19.70;99.90;;;;;;5108423;28;20943;-75
2022/07/25 05:43:21;;;;;;;8.50;6.10;;;19.80;99.90;;;;;;5112813;28;20178;-75
2022/07/25 05:45:46;;;;;;;17.43;6.10;;;19.90;99.90;;;;;;5112151;28;20204;-76
2022/07/25 05:48:13;;;;;;;16.30;7.07;;;20.00;99.90;;;;;;5113996;28;20250;-75
2022/07/25 05:50:40;;;;;;;8.87;5.60;;;20.10;99.90;;;;;;5113132;28;20183;-75
2022/07/25 05:53:05;;;;;;;10.70;5.63;;;20.20;99.90;;;;;;5113819;28;20417;-75
2022/07/25 05:55:31;;;;;;;11.07;6.07;;;20.20;99.90;;;;;;5100303;28;20418;-76
2022/07/25 05:57:57;;;;;;;13.17;6.50;;;20.30;99.90;;;;;;5105504;28;20610;-76
2022/07/25 06:00:23;;;;;;;12.37;6.33;;;20.30;99.90;;;;;;5111100;28;20717;-78
2022/07/25 06:02:48;;;;;;;10.50;6.30;;;20.40;99.90;;;;;;5107711;28;20168;-78
2022/07/25 06:05:14;;;;;;;14.87;6.90;;;20.50;99.90;;;;;;5105879;28;20176;-77
2022/07/25 06:07:40;;;;;;;9.63;6.27;;;20.50;99.90;;;;;;5104572;28;20225;-78
2022/07/25 06:10:06;;;;;;;8.37;5.00;;;20.60;99.90;;;;;;5099320;28;20172;-77
2022/07/25 06:12:32;;;;;;;12.70;6.33;;;20.90;99.90;;;;;;5101845;28;20187;-77
2022/07/25 06:14:59;;;;;;;10.50;4.47;;;21.10;99.90;;;;;;5108910;28;20429;-78
2022/07/25 06:17:25;;;;;;;9.23;5.47;;;21.20;99.90;;;;;;5106507;28;20764;-77
2022/07/25 06:19:51;;;;;;;10.10;5.63;;;21.30;99.90;;;;;;5112727;28;20421;-76
2022/07/25 06:22:18;;;;;;;10.07;6.03;;;21.30;99.90;;;;;;5112526;28;20421;-76
2022/07/25 06:24:44;;;;;;;10.67;6.47;;;21.50;99.90;;;;;;5111945;28;20176;-76
2022/07/25 06:27:10;;;;;;;11.10;5.73;;;21.70;99.90;;;;;;5088438;28;20906;-75
2022/07/25 06:29:37;;;;;;;11.77;6.20;;;21.80;99.90;;;;;;5105887;28;20175;-76
2022/07/25 06:32:03;;;;;;;14.60;4.93;;;22.00;99.90;;;;;;5109200;28;20188;-77
2022/07/25 06:34:29;;;;;;;8.70;5.20;;;22.20;99.90;;;;;;5103561;28;20426;-76
2022/07/25 06:36:56;;;;;;;13.70;5.77;;;22.40;99.90;;;;;;5100645;28;20470;-76
2022/07/25 06:39:22;;;;;;;11.07;5.03;;;22.70;99.00;;;;;;5109941;28;20182;-76
2022/07/25 06:41:48;;;;;;;8.37;5.40;;;22.70;99.20;;;;;;5109092;28;20410;-76
2022/07/25 06:44:17;;;;;;;6.93;4.67;;;22.80;99.00;;;;;;5111139;28;20179;-77
2022/07/25 06:46:42;;;;;;;10.13;5.67;;;22.80;99.00;;;;;;5110156;28;20895;-78
2022/07/25 06:49:08;;;;;;;10.47;5.47;;;22.90;99.10;;;;;;5110911;28;20496;-77
2022/07/25 06:51:33;;;;;;;9.80;5.40;;;23.10;98.80;;;;;;5110608;28;20183;-77
2022/07/25 06:53:59;;;;;;;9.67;5.43;;;23.20;98.30;;;;;;5110370;28;20179;-77
2022/07/25 06:56:26;;;;;;;9.43;5.10;;;23.40;97.90;;;;;;5110036;28;20184;-77
2022/07/25 06:58:53;;;;;;;9.17;4.67;;;23.60;98.20;;;;;;5104536;28;20187;-77
2022/07/25 07:01:19;;;;;;;9.33;4.70;;;23.70;97.50;;;;;;5097166;28;20541;-77
2022/07/25 07:03:44;;;;;;;8.63;5.03;;;23.80;97.60;;;;;;5097472;28;20546;-77
2022/07/25 07:06:10;;;;;;;12.50;5.33;;;23.90;97.40;;;;;;5104924;28;20214;-77
2022/07/25 07:08:36;;;;;;;9.50;5.70;;;24.10;98.10;;;;;;5101832;28;20272;-77
2022/07/25 07:11:02;;;;;;;14.93;5.83;;;24.30;95.80;;;;;;5105596;28;20509;-77
2022/07/25 07:13:28;;;;;;;9.50;5.20;;;24.60;96.00;;;;;;5100929;28;20771;-77
2022/07/25 07:15:54;;;;;;;6.93;4.90;;;24.90;94.70;;;;;;5105855;28;20421;-76
2022/07/25 07:18:20;;;;;;;11.67;5.97;;;25.10;94.70;;;;;;5105052;28;20182;-77
2022/07/25 07:20:46;;;;;;;10.13;6.10;;;25.30;94.70;;;;;;5102629;28;20438;-77
2022/07/25 07:23:12;;;;;;;10.63;5.70;;;25.40;95.40;;;;;;5105857;28;20206;-77
2022/07/25 07:25:38;;;;;;;11.47;5.90;;;25.60;95.10;;;;;;5094399;28;20923;-77
2022/07/25 07:28:04;;;;;;;11.93;6.20;;;25.90;94.40;;;;;;5107266;28;20179;-77
2022/07/25 07:30:30;;;;;;;11.13;5.70;;;26.30;94.70;;;;;;5098182;28;20206;-77
2022/07/25 07:32:56;;;;;;;14.30;6.20;;;26.80;93.80;;;;;;5098929;28;20179;-77
2022/07/25 07:35:24;;;;;;;11.40;7.13;;;27.20;93.40;;;;;;5102903;28;20775;-77
2022/07/25 07:37:50;;;;;;;11.73;6.00;;;27.50;92.00;;;;;;5106489;28;20612;-77
2022/07/25 07:40:17;;;;;;;10.60;5.50;;;27.70;91.60;;;;;;5106106;28;20772;-78
2022/07/25 07:42:45;;;;;;;10.68;5.53;;;28.40;91.20;;;;;;5103135;28;20183;-78
2022/07/25 07:45:13;;;;;;;13.65;6.00;;;29.30;89.70;;;;;;5106766;28;20211;-78
2022/07/25 07:47:39;;;;;;;8.57;5.43;;;30.40;88.10;;;;;;5112457;28;20204;-78
2022/07/25 07:50:05;;;;;;;9.10;4.97;;;31.60;82.30;;;;;;5111151;28;20199;-78
2022/07/25 07:52:31;;;;;;;19.50;6.70;;;32.70;78.00;;;;;;5116323;28;20190;-78
2022/07/25 07:57:41;;;;;;;16.08;6.38;;;33.60;73.20;;;;;;5128527;28;20221;-78
2022/07/25 08:00:07;;;;;;;9.20;5.97;;;33.90;73.50;;;;;;5133965;28;20210;-78
2022/07/25 08:02:48;;;;;;;12.65;5.10;;;34.60;71.50;;;;;;5116721;28;20247;-78
2022/07/25 08:05:22;;;;;;;12.68;6.00;;;34.80;70.50;;;;;;5101525;28;20198;-78
2022/07/25 08:07:50;;;;;;;9.40;6.05;;;35.10;67.80;;;;;;5101715;28;20212;-79
2022/07/25 08:10:29;;;;;;;9.50;5.45;;;35.40;67.90;;;;;;5109044;28;20167;-78
2022/07/25 08:12:55;;;;;;;32.20;6.50;;;35.70;65.00;;;;;;5106806;28;20224;-79
2022/07/25 08:15:22;;;;;;;8.88;5.05;;;35.80;64.10;;;;;;5108242;28;20183;-78
2022/07/25 08:17:49;;;;;;;10.07;6.10;;;35.60;63.80;;;;;;5104192;28;20225;-78
2022/07/25 08:20:16;;;;;;;10.90;5.38;;;35.00;63.80;;;;;;5104043;28;20629;-78
2022/07/25 08:22:44;;;;;;;9.25;6.43;;;35.10;64.40;;;;;;5102539;28;20221;-78
2022/07/25 08:25:13;;;;;;;11.57;6.05;;;35.20;64.00;;;;;;5088212;28;20309;-78
2022/07/25 08:27:39;;;;;;;11.15;6.68;;;35.10;64.10;;;;;;5107192;28;20254;-78
2022/07/25 08:30:06;;;;;;;9.48;6.22;;;34.90;65.10;;;;;;5107712;28;20226;-78
2022/07/25 08:32:32;;;;;;;8.82;5.63;;;35.30;63.00;;;;;;5103879;28;20207;-78
2022/07/25 08:35:00;;;;;;;8.27;5.95;;;35.60;64.10;;;;;;5104906;28;20183;-78
2022/07/25 08:37:27;;;;;;;9.70;5.88;;;35.80;62.50;;;;;;5110508;28;20226;-78
2022/07/25 08:39:53;;;;;;;11.43;7.13;;;35.70;63.00;;;;;;5110249;28;20175;-78
2022/07/25 08:42:19;;;;;;;9.35;6.32;;;35.60;61.00;;;;;;5108785;28;20208;-78
2022/07/25 08:45:01;;;;;;;10.23;6.10;;;36.00;61.30;;;;;;5108146;28;20190;-78
2022/07/25 08:47:28;;;;;;;9.70;5.88;;;36.00;62.40;;;;;;5107189;28;20631;-78
2022/07/25 08:49:55;;;;;;;8.57;5.40;;;36.10;60.40;;;;;;5108014;28;20175;-78
2022/07/25 08:52:22;;;;;;;9.48;6.28;;;36.10;60.00;;;;;;5109916;28;20214;-78
2022/07/25 08:54:49;;;;;;;8.18;6.00;;;35.80;61.70;;;;;;5107678;28;20259;-78
2022/07/25 08:57:16;;;;;;;10.68;5.97;;;35.60;60.60;;;;;;5110980;28;20637;-78
2022/07/25 08:59:42;;;;;;;8.07;5.53;;;35.80;59.90;;;;;;5107320;28;20193;-78
2022/07/25 09:02:11;;;;;;;9.93;6.65;;;35.40;61.60;;;;;;5102507;28;20167;-78
2022/07/25 09:04:37;;;;;;;8.30;5.85;;;35.00;60.50;;;;;;5102493;28;20189;-78
2022/07/25 09:07:03;;;;;;;9.98;5.40;;;35.30;59.40;;;;;;5103842;28;20610;-78
2022/07/25 09:09:35;;;;;;;8.02;5.55;;;35.30;60.60;;;;;;5111565;28;20182;-78
2022/07/25 09:12:01;;;;;;;12.10;6.38;;;35.10;61.10;;;;;;5104722;28;20694;-78
2022/07/25 09:14:28;;;;;;;12.02;6.15;;;35.30;62.10;;;;;;5112916;28;20183;-78
2022/07/25 09:16:54;;;;;;;8.80;5.82;;;35.30;62.10;;;;;;5112285;28;20183;-78
2022/07/25 09:19:23;;;;;;;8.65;5.75;;;35.20;60.90;;;;;;5112330;28;20262;-78
2022/07/25 09:22:03;;;;;;;8.65;5.03;;;35.30;58.10;;;;;;5111112;28;20175;-78
2022/07/25 09:24:31;;;;;;;6.93;5.07;;;35.50;57.90;;;;;;5109760;28;20179;-78
2022/07/25 09:26:58;;;;;;;7.30;5.68;;;35.00;58.10;;;;;;5093364;28;20228;-79
2022/07/25 09:29:26;;;;;;;10.68;5.82;;;35.30;57.40;;;;;;5110852;28;20198;-78
2022/07/25 09:31:54;;;;;;;10.93;6.00;;;35.10;59.70;;;;;;5109165;28;20252;-79
2022/07/25 09:34:39;;;;;;;11.98;6.25;;;34.90;60.00;;;;;;5111639;28;20542;-78
2022/07/25 09:37:13;;;;;;;8.93;5.13;;;34.70;60.60;;;;;;5112373;28;20175;-79
2022/07/25 09:39:40;;;;;;;7.15;5.25;;;34.80;60.00;;;;;;5102440;28;20179;-79
2022/07/25 09:42:35;;;;;;;8.35;5.95;;;34.90;61.10;;;;;;5091266;28;20194;-79
2022/07/25 09:45:11;;;;;;;7.55;5.00;;;35.20;60.10;;;;;;5087345;28;20197;-78
2022/07/25 09:47:50;;;;;;;7.20;4.80;;;35.40;57.50;;;;;;5095688;28;20535;-78
2022/07/25 09:50:17;;;;;;;10.10;5.88;;;35.50;58.00;;;;;;5084800;28;20207;-78
2022/07/25 09:52:45;;;;;;;6.32;4.20;;;35.60;56.70;;;;;;5101953;28;20717;-79
2022/07/25 09:55:12;;;;;;;9.48;4.60;;;35.50;54.80;;;;;;5105700;28;20274;-78
2022/07/25 09:57:39;;;;;;;7.68;4.60;;;35.60;55.60;;;;;;5102929;28;20282;-78
2022/07/25 10:00:07;;;;;;;7.60;4.85;;;35.70;56.30;;;;;;5109770;28;20190;-78
2022/07/25 10:02:50;;;;;;;6.03;4.55;;;35.80;56.60;;;;;;5103365;28;20555;-78
2022/07/25 10:05:55;;;;;;;10.02;4.97;;;36.30;54.20;;;;;;5111621;28;20175;-77
2022/07/25 10:08:21;;;;;;;10.77;3.65;;;36.20;54.30;;;;;;5111019;28;20273;-78
2022/07/25 10:10:47;;;;;;;9.05;5.13;;;36.00;56.00;;;;;;5105838;28;20199;-78
2022/07/25 10:13:16;;;;;;;5.93;3.70;;;36.10;54.10;;;;;;5110000;28;20210;-78
2022/07/25 10:15:52;;;;;;;8.55;4.35;;;36.20;53.00;;;;;;5102429;28;20184;-77
2022/07/25 10:18:21;;;;;;;10.23;4.10;;;36.10;52.40;;;;;;5091376;28;20183;-77
2022/07/25 10:20:49;;;;;;;5.78;3.42;;;35.70;55.10;;;;;;5104037;28;20290;-77
2022/07/25 10:23:27;;;;;;;4.82;3.30;;;35.80;50.50;;;;;;5107708;28;20531;-77
2022/07/25 10:26:12;;;;;;;5.53;2.80;;;35.50;50.60;;;;;;5102723;28;20179;-77
2022/07/25 10:28:40;;;;;;;4.50;2.55;;;35.00;54.00;;;;;;5103242;28;20182;-77
2022/07/25 10:31:33;;;;;;;6.00;3.08;;;34.70;52.40;;;;;;5106424;28;20229;-77
2022/07/25 10:34:05;;;;;;;4.25;2.55;;;34.80;52.20;;;;;;5108995;28;20912;-78
2022/07/25 10:36:55;;;;;;;5.78;2.92;;;34.60;49.80;;;;;;5106986;28;20270;-76
2022/07/25 10:39:22;;;;;;;5.30;2.33;;;34.50;49.80;;;;;;5108597;28;20179;-77
2022/07/25 10:41:54;;;;;;;5.85;3.25;;;34.40;49.60;;;;;;5104959;28;20194;-77
2022/07/25 10:44:20;;;;;;;4.03;2.50;;;34.30;51.00;;;;;;5107567;27;20232;-76
2022/07/25 10:46:47;;;;;;;5.00;3.00;;;34.40;51.60;;;;;;5107009;28;20538;-76
2022/07/25 10:49:26;;;;;;;5.57;3.40;;;34.30;50.80;;;;;;5110907;28;20175;-76
2022/07/25 10:52:01;;;;;;;13.43;3.42;;;34.30;50.80;;;;;;5105532;28;20208;-76
2022/07/25 10:54:36;;;;;;;4.80;2.90;;;34.40;52.70;;;;;;5105920;28;20199;-77
2022/07/25 10:57:12;;;;;;;4.85;3.22;;;34.40;52.00;;;;;;5102949;28;20179;-77
2022/07/25 10:59:39;;;;;;;5.95;2.63;;;34.40;49.50;;;;;;5101063;28;20247;-77
2022/07/25 11:02:08;;;;;;;5.88;3.17;;;34.50;49.80;;;;;;5105932;28;20175;-76
2022/07/25 11:04:34;;;;;;;7.20;3.20;;;34.40;50.20;;;;;;5104024;28;20194;-76
2022/07/25 11:07:16;;;;;;;5.95;2.58;;;34.20;51.60;;;;;;5103796;28;20644;-76
2022/07/25 11:09:43;;;;;;;5.30;3.00;;;34.30;53.50;;;;;;5104792;28;20249;-77
2022/07/25 11:12:13;;;;;;;5.35;3.42;;;34.50;50.20;;;;;;5104357;28;20258;-77
2022/07/25 11:14:41;;;;;;;5.65;2.92;;;34.50;49.40;;;;;;5100905;28;20172;-76
2022/07/25 11:17:19;;;;;;;3.85;2.05;;;34.50;49.70;;;;;;5101249;28;20780;-77
2022/07/25 11:19:53;;;;;;;5.47;2.97;;;34.60;50.50;;;;;;5108377;28;20186;-76
2022/07/25 11:22:19;;;;;;;5.95;3.50;;;34.50;49.30;;;;;;5104982;28;20171;-76
2022/07/25 11:24:46;;;;;;;4.93;2.78;;;34.50;49.70;;;;;;5106851;28;20531;-77
2022/07/25 11:27:20;;;;;;;7.80;2.90;;;34.50;50.30;;;;;;5104878;28;20671;-77
2022/07/25 11:29:46;;;;;;;5.93;3.30;;;34.50;50.70;;;;;;5100982;28;20229;-77
2022/07/25 11:32:12;;;;;;;5.50;3.15;;;34.80;51.40;;;;;;5104071;28;20180;-77
2022/07/25 11:34:49;;;;;;;5.50;2.55;;;34.90;48.50;;;;;;5107661;28;20159;-76
2022/07/25 11:37:15;;;;;;;5.57;2.38;;;34.80;48.60;;;;;;5105209;28;20206;-77
2022/07/25 11:39:43;;;;;;;6.70;3.40;;;34.70;49.80;;;;;;5098497;28;20187;-77
2022/07/25 11:42:09;;;;;;;5.85;2.72;;;34.90;51.20;;;;;;5106567;28;20562;-76
2022/07/25 11:44:36;;;;;;;3.78;2.35;;;34.90;50.70;;;;;;5108440;28;20258;-77
2022/07/25 11:47:06;;;;;;;5.55;3.20;;;35.00;48.00;;;;;;5106754;28;20200;-77
2022/07/25 11:49:46;;;;;;;7.18;3.97;;;34.90;49.40;;;;;;5093658;28;20213;-77
2022/07/25 11:52:19;;;;;;;5.63;3.28;;;34.90;48.50;;;;;;5110472;27;20324;-76
2022/07/25 11:54:51;;;;;;;5.57;3.40;;;35.10;48.90;;;;;;5114056;27;20594;-75
2022/07/25 11:57:24;;;;;;;6.55;2.95;;;35.20;48.40;;;;;;5106724;28;20213;-76
2022/07/25 11:59:51;;;;;;;3.90;2.50;;;35.20;47.40;;;;;;5110446;27;20653;-77
2022/07/25 12:02:21;;;;;;;4.35;2.92;;;34.90;49.40;;;;;;5109345;27;20269;-76
2022/07/25 12:05:04;;;;;;;7.07;3.38;;;34.70;49.30;;;;;;5113608;27;20881;-77
2022/07/25 12:07:43;;;;;;;5.43;2.38;;;34.50;51.70;;;;;;5090177;28;20195;-76
2022/07/25 12:10:15;;;;;;;5.70;2.40;;;34.30;49.70;;;;;;5109615;27;20626;-76
2022/07/25 12:12:47;;;;;;;4.13;2.47;;;34.20;50.50;;;;;;5106201;27;20180;-76
2022/07/25 12:15:14;;;;;;;5.90;2.55;;;34.00;50.00;;;;;;5106681;27;20224;-76
2022/07/25 12:17:40;;;;;;;4.80;2.88;;;34.20;50.60;;;;;;5107010;28;20179;-76
2022/07/25 12:20:13;;;;;;;6.45;3.50;;;34.60;52.40;;;;;;5103366;28;20270;-75
2022/07/25 12:22:39;;;;;;;7.97;3.70;;;34.90;52.70;;;;;;5080907;28;20187;-76
2022/07/25 12:25:05;;;;;;;6.00;3.03;;;35.20;51.40;;;;;;5108233;28;20262;-76
2022/07/25 12:27:31;;;;;;;6.85;3.83;;;35.30;50.00;;;;;;5107554;28;20203;-76
2022/07/25 12:29:57;;;;;;;7.03;3.90;;;34.90;50.70;;;;;;5105853;28;20242;-75
2022/07/25 12:32:22;;;;;;;7.07;3.63;;;34.80;49.90;;;;;;5103190;28;20216;-76
2022/07/25 12:34:48;;;;;;;5.63;3.20;;;34.90;51.10;;;;;;5105503;28;20249;-76
2022/07/25 12:37:14;;;;;;;5.72;3.13;;;34.70;50.00;;;;;;5106006;28;20219;-76
2022/07/25 12:39:39;;;;;;;4.85;3.10;;;34.70;49.50;;;;;;5105050;28;20191;-76
2022/07/25 12:42:05;;;;;;;4.40;3.13;;;34.70;48.90;;;;;;5107627;28;20690;-76
2022/07/25 12:44:31;;;;;;;5.88;3.35;;;34.70;50.40;;;;;;5106516;28;20183;-76